createdAt,value
2022-08-22T00:00:17.271Z,98060.94
2022-08-22T00:03:01.249Z,98025.75
2022-08-22T00:03:06.629Z,98060.06
2022-08-22T00:06:05.783Z,98060.75
2022-08-22T00:08:43.941Z,98064.31
2022-08-22T00:11:25.555Z,98065.75
2022-08-22T00:14:02.154Z,98059.81
2022-08-22T00:16:39.034Z,98054.03
2022-08-22T00:19:19.457Z,98061.81
2022-08-22T00:22:01.177Z,98060.34
2022-08-22T00:24:37.243Z,98062.88
2022-08-22T00:27:12.634Z,98062.91
2022-08-22T00:29:45.946Z,98057.66
2022-08-22T00:32:21.092Z,98056.31
2022-08-22T00:34:58.637Z,98053.28
2022-08-22T00:37:34.338Z,98054.28
2022-08-22T00:40:21.523Z,98055.25
2022-08-22T00:43:14.227Z,98050.28
2022-08-22T00:46:11.220Z,98044.59
2022-08-22T00:49:15.321Z,98042.97
2022-08-22T00:52:14.750Z,98042.97
2022-08-22T00:55:17.316Z,98037.63
2022-08-22T00:58:17.017Z,98040.53
2022-08-22T01:00:55.976Z,98038.88
2022-08-22T01:03:56.292Z,98044.81
2022-08-22T01:06:43.842Z,98047.59
2022-08-22T01:09:34.334Z,98048.53
2022-08-22T01:12:30.095Z,98048.69
2022-08-22T01:15:05.448Z,98041.94
2022-08-22T01:18:00.621Z,98044.88
2022-08-22T01:21:08.199Z,98036.88
2022-08-22T01:24:29.595Z,98041.97
2022-08-22T01:27:37.897Z,98038.00
2022-08-22T01:30:51.573Z,98034.84
2022-08-22T01:34:12.884Z,98036.50
2022-08-22T01:37:18.638Z,98038.56
2022-08-22T01:41:01.122Z,98031.69
2022-08-22T01:44:09.255Z,98031.28
2022-08-22T01:46:51.086Z,98036.53
2022-08-22T01:49:25.736Z,98042.16
2022-08-22T01:52:03.087Z,98041.03
2022-08-22T01:54:50.300Z,98053.28
2022-08-22T01:57:19.756Z,98058.78
2022-08-22T01:59:52.670Z,98053.41
2022-08-22T02:02:46.722Z,98063.59
2022-08-22T02:05:27.544Z,98050.94
2022-08-22T02:08:03.155Z,98050.50
2022-08-22T02:10:55.364Z,98049.97
2022-08-22T02:13:47.872Z,98051.19
2022-08-22T02:16:22.559Z,98054.06
2022-08-22T02:18:59.534Z,98048.84
2022-08-22T02:21:44.299Z,98042.22
2022-08-22T02:24:27.553Z,98049.63
2022-08-22T02:27:11.649Z,98049.47
2022-08-22T02:29:46.343Z,98049.59
2022-08-22T02:32:23.803Z,98048.06
2022-08-22T02:35:03.524Z,98050.84
2022-08-22T02:37:40.222Z,98048.75
2022-08-22T02:40:17.498Z,98047.22
2022-08-22T02:42:56.556Z,98045.72
2022-08-22T02:45:36.727Z,98038.69
2022-08-22T02:48:18.517Z,98040.59
2022-08-22T02:50:54.486Z,98040.03
2022-08-22T02:53:34.451Z,98040.28
2022-08-22T02:56:10.343Z,98041.38
2022-08-22T02:58:46.789Z,98039.28
2022-08-22T03:01:35.338Z,98034.34
2022-08-22T03:04:28.325Z,98033.19
2022-08-22T03:07:14.110Z,98034.41
2022-08-22T03:09:50.704Z,98032.47
2022-08-22T03:12:27.309Z,98022.53
2022-08-22T03:15:03.705Z,98023.75
2022-08-22T03:17:37.613Z,98026.03
2022-08-22T03:20:11.954Z,98031.53
2022-08-22T03:22:50.230Z,98023.25
2022-08-22T03:25:31.403Z,98026.81
2022-08-22T03:28:05.294Z,98033.56
2022-08-22T03:30:40.311Z,98035.59
2022-08-22T03:33:19.830Z,98029.50
2022-08-22T03:36:06.473Z,98028.59
2022-08-22T03:39:17.050Z,98029.94
2022-08-22T03:42:39.736Z,98035.53
2022-08-22T03:46:07.135Z,98034.00
2022-08-22T03:49:06.196Z,98035.94
2022-08-22T03:51:47.244Z,98042.94
2022-08-22T03:54:55.677Z,98037.56
2022-08-22T03:58:27.409Z,98033.31
2022-08-22T04:01:25.431Z,98035.34
2022-08-22T04:04:49.145Z,98040.56
2022-08-22T04:08:04.198Z,98053.38
2022-08-22T04:11:04.152Z,98053.84
2022-08-22T04:13:56.204Z,98054.34
2022-08-22T04:17:02.050Z,98056.72
2022-08-22T04:20:09.667Z,98056.88
2022-08-22T04:23:41.233Z,98059.72
2022-08-22T04:26:17.010Z,98057.13
2022-08-22T04:28:52.063Z,98066.94
2022-08-22T04:31:27.707Z,98070.66
2022-08-22T04:34:04.880Z,98062.94
2022-08-22T04:36:42.113Z,98066.50
2022-08-22T04:39:19.457Z,98064.38
2022-08-22T04:41:54.694Z,98070.53
2022-08-22T04:44:37.828Z,98068.88
2022-08-22T04:47:15.321Z,98075.63
2022-08-22T04:49:51.376Z,98071.00
2022-08-22T04:52:31.622Z,98076.19
2022-08-22T04:55:12.576Z,98079.19
2022-08-22T04:57:58.744Z,98084.53
2022-08-22T05:00:41.835Z,98076.00
2022-08-22T05:03:15.443Z,98073.50
2022-08-22T05:05:46.262Z,98084.75
2022-08-22T05:08:23.757Z,98088.31
2022-08-22T05:10:53.654Z,98089.97
2022-08-22T05:13:29.590Z,98091.63
2022-08-22T05:16:04.415Z,98095.19
2022-08-22T05:18:39.752Z,98094.94
2022-08-22T05:21:13.946Z,98087.81
2022-08-22T05:23:52.796Z,98093.75
2022-08-22T05:26:22.579Z,98092.56
2022-08-22T05:28:56.444Z,98089.81
2022-08-22T05:31:32.601Z,98095.38
2022-08-22T05:34:06.385Z,98093.50
2022-08-22T05:36:40.396Z,98094.41
2022-08-22T05:39:12.920Z,98099.63
2022-08-22T05:41:43.449Z,98091.00
2022-08-22T05:44:25.200Z,98102.38
2022-08-22T05:47:02.570Z,98101.41
2022-08-22T05:49:38.849Z,98100.34
2022-08-22T05:52:22.672Z,98102.59
2022-08-22T05:54:58.574Z,98103.66
2022-08-22T05:57:32.273Z,98103.66
2022-08-22T06:00:07.491Z,98099.84
2022-08-22T06:02:56.653Z,98104.00
2022-08-22T06:05:28.714Z,98098.53
2022-08-22T06:08:08.004Z,98099.00
2022-08-22T06:10:44.755Z,98097.44
2022-08-22T06:13:24.686Z,98105.16
2022-08-22T06:16:05.606Z,98095.31
2022-08-22T06:18:40.108Z,98095.31
2022-08-22T06:21:12.910Z,98097.94
2022-08-22T06:23:46.667Z,98107.41
2022-08-22T06:26:20.634Z,98097.94
2022-08-22T06:28:55.735Z,98101.13
2022-08-22T06:31:28.563Z,98100.53
2022-08-22T06:34:04.900Z,98090.09
2022-08-22T06:36:36.659Z,98095.31
2022-08-22T06:39:12.737Z,98102.66
2022-08-22T06:41:49.210Z,98106.81
2022-08-22T06:44:23.316Z,98098.75
2022-08-22T06:46:56.533Z,98110.13
2022-08-22T06:49:29.107Z,98097.56
2022-08-22T06:52:04.499Z,98099.81
2022-08-22T06:54:37.339Z,98099.31
2022-08-22T06:57:07.723Z,98109.19
2022-08-22T06:59:39.719Z,98106.69
2022-08-22T07:02:23.017Z,98107.84
2022-08-22T07:04:53.404Z,98116.00
2022-08-22T07:07:26.676Z,98118.59
2022-08-22T07:09:57.581Z,98121.81
2022-08-22T07:12:31.229Z,98117.03
2022-08-22T07:15:11.176Z,98116.53
2022-08-22T07:35:38.280Z,98113.31
2022-08-22T07:38:21.221Z,98115.41
2022-08-22T07:41:00.505Z,98119.16
2022-08-22T07:43:33.312Z,98118.63
2022-08-22T07:46:12.238Z,98111.38
2022-08-22T07:49:08.997Z,98118.56
2022-08-22T07:51:44.689Z,98109.25
2022-08-22T07:54:14.753Z,98110.69
2022-08-22T07:56:54.213Z,98118.69
2022-08-22T07:59:24.449Z,98123.41
2022-08-22T08:01:58.360Z,98119.56
2022-08-22T08:04:30.834Z,98118.47
2022-08-22T08:07:03.575Z,98120.72
2022-08-22T08:09:36.116Z,98121.81
2022-08-22T08:12:06.900Z,98126.38
2022-08-22T08:14:39.835Z,98122.28
2022-08-22T08:17:12.589Z,98124.13
2022-08-22T08:19:43.994Z,98125.91
2022-08-22T08:22:19.812Z,98123.72
2022-08-22T08:24:50.089Z,98122.22
2022-08-22T08:27:41.502Z,98127.75
2022-08-22T08:30:16.234Z,98126.00
2022-08-22T08:32:47.653Z,98128.06
2022-08-22T08:35:26.710Z,98131.09
2022-08-22T08:38:03.491Z,98119.00
2022-08-22T08:40:58.704Z,98120.94
2022-08-22T08:43:38.239Z,98120.81
2022-08-22T08:46:51.853Z,98118.88
2022-08-22T08:49:57.640Z,98118.84
2022-08-22T08:53:15.404Z,98112.06
2022-08-22T08:55:53.358Z,98101.06
2022-08-22T08:58:50.975Z,98095.94
2022-08-22T09:01:42.226Z,98106.28
2022-08-22T09:04:42.303Z,98106.50
2022-08-22T09:08:00.777Z,98103.72
2022-08-22T09:11:09.695Z,98099.13
2022-08-22T09:13:54.568Z,98099.75
2022-08-22T09:16:48.161Z,98104.16
2022-08-22T09:19:57.211Z,98099.28
2022-08-22T09:23:35.959Z,98106.13
2022-08-22T09:26:14.823Z,98103.59
2022-08-22T09:28:54.433Z,98103.69
2022-08-22T09:31:47.655Z,98102.16
2022-08-22T09:34:28.594Z,98096.00
2022-08-22T09:37:19.459Z,98095.56
2022-08-22T09:39:59.715Z,98092.72
2022-08-22T09:42:44.967Z,98095.03
2022-08-22T09:45:40.820Z,98095.66
2022-08-22T09:48:34.359Z,98084.91
2022-08-22T09:51:31.565Z,98086.31
2022-08-22T09:54:18.887Z,98092.97
2022-08-22T09:57:19.402Z,98092.31
2022-08-22T10:00:25.759Z,98100.84
2022-08-22T10:03:07.158Z,98094.72
2022-08-22T10:05:46.375Z,98088.84
2022-08-22T10:08:39.638Z,98093.50
2022-08-22T10:11:31.316Z,98100.13
2022-08-22T10:14:06.129Z,98104.25
2022-08-22T10:16:52.081Z,98096.50
2022-08-22T10:19:28.625Z,98096.13
2022-08-22T10:22:40.973Z,98095.59
2022-08-22T10:25:26.229Z,98094.25
2022-08-22T10:28:15.816Z,98091.31
2022-08-22T10:31:02.356Z,98079.19
2022-08-22T10:33:37.989Z,98082.66
2022-08-22T10:36:12.941Z,98071.88
2022-08-22T10:38:47.783Z,98071.56
2022-08-22T10:41:30.504Z,98065.50
2022-08-22T10:44:12.720Z,98076.00
2022-08-22T10:46:49.832Z,98071.56
2022-08-22T10:49:28.271Z,98069.94
2022-08-22T10:52:15.900Z,98068.13
2022-08-22T10:54:49.402Z,98065.84
2022-08-22T10:57:36.274Z,98057.31
2022-08-22T11:00:15.553Z,98052.78
2022-08-22T11:03:02.401Z,98052.13
2022-08-22T11:05:42.826Z,98043.59
2022-08-22T11:08:40.998Z,98043.72
2022-08-22T11:11:21.541Z,98039.00
2022-08-22T11:14:20.932Z,98039.69
2022-08-22T11:17:00.681Z,98043.31
2022-08-22T11:19:52.896Z,98039.88
2022-08-22T11:22:32.656Z,98045.81
2022-08-22T11:25:38.606Z,98043.34
2022-08-22T11:28:38.464Z,98037.44
2022-08-22T11:31:16.351Z,98034.78
2022-08-22T11:33:54.208Z,98028.38
2022-08-22T11:36:31.577Z,98024.59
2022-08-22T11:39:18.337Z,98022.44
2022-08-22T11:41:56.326Z,98020.63
2022-08-22T11:44:34.335Z,98018.00
2022-08-22T11:47:12.993Z,98016.03
2022-08-22T11:49:54.131Z,98017.00
2022-08-22T11:52:51.804Z,98017.69
2022-08-22T11:55:32.713Z,98020.13
2022-08-22T11:58:29.105Z,98012.41
2022-08-22T12:01:03.843Z,98007.97
2022-08-22T12:03:55.665Z,98007.97
2022-08-22T12:06:51.443Z,98010.09
2022-08-22T12:09:50.528Z,98007.94
2022-08-22T12:12:27.641Z,98004.16
2022-08-22T12:15:02.345Z,98011.06
2022-08-22T12:18:20.131Z,98014.38
2022-08-22T12:21:49.605Z,98004.78
2022-08-22T12:24:34.256Z,98003.69
2022-08-22T12:27:48.067Z,97990.34
2022-08-22T12:30:33.212Z,97992.81
2022-08-22T12:33:42.359Z,97994.75
2022-08-22T12:36:43.665Z,97994.63
2022-08-22T12:39:43.247Z,97991.78
2022-08-22T12:42:59.108Z,97987.03
2022-08-22T12:45:40.708Z,97983.09
2022-08-22T12:48:23.691Z,97972.06
2022-08-22T12:50:59.704Z,97975.13
2022-08-22T12:54:13.872Z,97969.59
2022-08-22T12:56:52.200Z,97971.22
2022-08-22T12:59:30.525Z,97955.47
2022-08-22T13:02:12.248Z,97965.19
2022-08-22T13:04:49.597Z,97957.94
2022-08-22T13:07:27.309Z,97960.31
2022-08-22T13:10:03.627Z,97952.16
2022-08-22T13:12:39.939Z,97954.53
2022-08-22T13:15:31.092Z,97952.66
2022-08-22T13:18:25.184Z,97960.75
2022-08-22T13:20:56.880Z,97954.72
2022-08-22T13:23:29.209Z,97948.94
2022-08-22T13:26:08.119Z,97950.38
2022-08-22T13:28:45.285Z,97950.38
2022-08-22T13:31:30.155Z,97955.59
2022-08-22T13:34:02.230Z,97950.19
2022-08-22T13:36:35.360Z,97941.44
2022-08-22T13:39:25.717Z,97940.66
2022-08-22T13:41:57.776Z,97944.19
2022-08-22T13:44:29.339Z,97938.69
2022-08-22T13:47:14.800Z,97940.31
2022-08-22T13:49:48.175Z,97945.22
2022-08-22T13:52:30.169Z,97936.44
2022-08-22T13:55:12.223Z,97939.84
2022-08-22T13:57:51.785Z,97937.19
2022-08-22T14:01:10.705Z,97934.06
2022-08-22T14:03:48.821Z,97929.44
2022-08-22T14:06:37.924Z,97927.28
2022-08-22T14:09:31.544Z,97926.94
2022-08-22T14:12:12.304Z,97925.75
2022-08-22T14:14:46.207Z,97925.13
2022-08-22T14:17:21.721Z,97925.66
2022-08-22T14:20:01.573Z,97931.31
2022-08-22T14:22:35.764Z,97930.41
2022-08-22T14:25:08.521Z,97925.06
2022-08-22T14:27:41.421Z,97924.22
2022-08-22T14:30:19.347Z,97921.34
2022-08-22T14:32:54.025Z,97915.06
2022-08-22T14:35:37.677Z,97914.22
2022-08-22T14:38:27.416Z,97921.94
2022-08-22T14:41:05.149Z,97908.28
2022-08-22T14:43:53.783Z,97909.44
2022-08-22T14:46:29.746Z,97905.34
2022-08-22T14:49:38.237Z,97898.47
2022-08-22T14:52:19.866Z,97896.31
2022-08-22T14:54:48.853Z,97899.53
2022-08-22T14:57:20.774Z,97895.53
2022-08-22T14:59:52.159Z,97896.44
2022-08-22T15:02:28.278Z,97894.63
2022-08-22T15:05:01.595Z,97895.91
2022-08-22T15:07:34.877Z,97894.38
2022-08-22T15:10:11.848Z,97894.91
2022-08-22T15:12:48.280Z,97887.41
2022-08-22T15:15:32.731Z,97887.50
2022-08-22T15:18:20.881Z,97887.19
2022-08-22T15:21:04.377Z,97881.75
2022-08-22T15:23:46.768Z,97887.34
2022-08-22T15:26:25.721Z,97883.72
2022-08-22T15:29:07.253Z,97879.81
2022-08-22T15:31:36.810Z,97874.47
2022-08-22T15:34:18.127Z,97884.59
2022-08-22T15:37:09.145Z,97876.16
2022-08-22T15:40:11.928Z,97875.22
2022-08-22T15:42:45.694Z,97873.34
2022-08-22T15:45:33.724Z,97871.13
2022-08-22T15:48:05.610Z,97869.81
2022-08-22T15:50:38.771Z,97862.28
2022-08-22T15:53:19.328Z,97867.25
2022-08-22T15:56:21.959Z,97872.72
2022-08-22T15:59:10.074Z,97863.53
2022-08-22T16:01:49.835Z,97861.34
2022-08-22T16:04:37.632Z,97866.09
2022-08-22T16:07:28.192Z,97864.69
2022-08-22T16:10:00.137Z,97863.78
2022-08-22T16:12:36.932Z,97863.53
2022-08-22T16:15:10.853Z,97867.13
2022-08-22T16:18:02.565Z,97869.81
2022-08-22T16:20:59.159Z,97863.00
2022-08-22T16:23:27.537Z,97862.09
2022-08-22T16:26:17.676Z,97857.94
2022-08-22T16:28:59.063Z,97862.81
2022-08-22T16:31:32.635Z,97867.53
2022-08-22T16:34:23.829Z,97862.97
2022-08-22T16:37:35.156Z,97862.34
2022-08-22T16:40:19.379Z,97859.09
2022-08-22T16:42:54.496Z,97851.88
2022-08-22T16:45:36.599Z,97854.78
2022-08-22T16:48:31.534Z,97858.84
2022-08-22T16:51:14.125Z,97858.84
2022-08-22T16:54:10.284Z,97855.69
2022-08-22T16:57:05.537Z,97854.19
2022-08-22T17:00:06.486Z,97863.41
2022-08-22T17:03:05.214Z,97857.78
2022-08-22T17:05:48.644Z,97853.91
2022-08-22T17:08:39.269Z,97863.22
2022-08-22T17:11:25.489Z,97862.31
2022-08-22T17:14:13.856Z,97867.53
2022-08-22T17:16:57.284Z,97875.97
2022-08-22T17:19:46.792Z,97868.09
2022-08-22T17:22:28.844Z,97870.56
2022-08-22T17:25:16.752Z,97869.47
2022-08-22T17:27:52.662Z,97872.59
2022-08-22T17:30:30.333Z,97876.22
2022-08-22T17:33:12.306Z,97875.56
2022-08-22T17:36:03.137Z,97877.34
2022-08-22T17:38:51.107Z,97886.63
2022-08-22T17:41:33.010Z,97887.69
2022-08-22T17:44:14.309Z,97885.44
2022-08-22T17:46:50.811Z,97890.84
2022-08-22T17:49:45.382Z,97893.00
2022-08-22T17:52:20.676Z,97902.59
2022-08-22T17:54:57.114Z,97910.53
2022-08-22T17:57:32.191Z,97902.47
2022-08-22T18:00:09.750Z,97910.22
2022-08-22T18:02:47.684Z,97912.97
2022-08-22T18:05:20.694Z,97906.50
2022-08-22T18:08:03.401Z,97909.09
2022-08-22T18:10:42.524Z,97917.63
2022-08-22T18:13:14.957Z,97913.81
2022-08-22T18:15:51.174Z,97902.03
2022-08-22T18:18:31.214Z,97920.97
2022-08-22T18:21:07.994Z,97922.31
2022-08-22T18:23:42.506Z,97920.09
2022-08-22T18:26:27.076Z,97924.66
2022-08-22T18:29:01.568Z,97930.69
2022-08-22T18:31:46.611Z,97931.84
2022-08-22T18:34:26.013Z,97929.25
2022-08-22T18:37:03.041Z,97930.13
2022-08-22T18:39:43.837Z,97930.81
2022-08-22T18:42:25.856Z,97935.75
2022-08-22T18:44:54.528Z,97937.25
2022-08-22T18:47:28.254Z,97934.22
2022-08-22T18:49:57.910Z,97942.41
2022-08-22T18:52:44.383Z,97941.44
2022-08-22T18:55:46.543Z,97942.69
2022-08-22T18:58:42.684Z,97952.97
2022-08-22T19:01:42.130Z,97953.59
2022-08-22T19:05:07.157Z,97953.41
2022-08-22T19:08:02.170Z,97953.38
2022-08-22T19:10:46.510Z,97962.59
2022-08-22T19:13:25.911Z,97959.31
2022-08-22T19:16:23.182Z,97964.84
2022-08-22T19:18:56.633Z,97966.06
2022-08-22T19:21:46.453Z,97968.13
2022-08-22T19:25:06.006Z,97970.91
2022-08-22T19:27:41.727Z,97973.56
2022-08-22T19:30:44.002Z,97983.13
2022-08-22T19:33:19.255Z,97977.19
2022-08-22T19:36:11.932Z,97981.84
2022-08-22T19:39:01.172Z,97979.56
2022-08-22T19:41:45.482Z,97983.84
2022-08-22T19:44:43.250Z,97980.91
2022-08-22T19:47:28.479Z,97983.09
2022-08-22T19:50:05.558Z,97983.44
2022-08-22T19:53:02.676Z,97976.25
2022-08-22T19:55:54.682Z,97988.03
2022-08-22T19:58:33.070Z,97981.22
2022-08-22T20:01:23.819Z,97981.75
2022-08-22T20:03:59.196Z,97983.13
2022-08-22T20:06:45.011Z,97979.97
2022-08-22T20:09:27.436Z,97977.47
2022-08-22T20:12:14.662Z,97986.16
2022-08-22T20:14:46.007Z,97981.44
2022-08-22T20:17:43.378Z,97991.97
2022-08-22T20:20:40.401Z,97990.09
2022-08-22T20:23:16.771Z,97995.53
2022-08-22T20:25:50.324Z,97993.97
2022-08-22T20:28:37.815Z,97995.09
2022-08-22T20:31:13.101Z,97995.84
2022-08-22T20:33:46.004Z,98004.56
2022-08-22T20:36:27.427Z,98002.47
2022-08-22T20:39:01.494Z,98004.78
2022-08-22T20:41:35.602Z,98003.50
2022-08-22T20:44:12.199Z,98011.16
2022-08-22T20:46:53.532Z,98008.72
2022-08-22T20:49:29.418Z,98025.31
2022-08-22T20:51:59.782Z,98020.28
2022-08-22T20:54:31.649Z,98027.56
2022-08-22T20:57:03.015Z,98024.88
2022-08-22T20:59:36.947Z,98019.47
2022-08-22T21:02:14.202Z,98022.47
2022-08-22T21:04:52.715Z,98019.56
2022-08-22T21:07:24.735Z,98019.94
2022-08-22T21:10:22.860Z,98017.66
2022-08-22T21:13:14.325Z,98020.66
2022-08-22T21:15:48.071Z,98017.53
2022-08-22T21:18:28.978Z,98018.44
2022-08-22T21:21:17.199Z,98019.53
2022-08-22T21:23:51.341Z,98025.91
2022-08-22T21:26:25.321Z,98026.59
2022-08-22T21:29:02.427Z,98026.31
2022-08-22T21:31:34.669Z,98022.00
2022-08-22T21:34:05.726Z,98026.41
2022-08-22T21:36:39.723Z,98029.94
2022-08-22T21:39:16.660Z,98025.88
2022-08-22T21:41:51.556Z,98028.75
2022-08-22T21:44:34.886Z,98043.84
2022-08-22T21:47:19.103Z,98049.16
2022-08-22T21:50:27.161Z,98048.41
2022-08-22T21:53:12.126Z,98044.59
2022-08-22T21:55:44.415Z,98039.84
2022-08-22T21:58:36.851Z,98052.28
2022-08-22T22:01:29.584Z,98048.03
2022-08-22T22:03:59.355Z,98059.25
2022-08-22T22:06:28.570Z,98057.47
2022-08-22T22:08:58.271Z,98052.06
2022-08-22T22:11:26.684Z,98058.03
2022-08-22T22:13:55.635Z,98048.81
2022-08-22T22:16:28.338Z,98051.81
2022-08-22T22:18:57.170Z,98059.22
2022-08-22T22:21:25.877Z,98056.44
2022-08-22T22:23:54.519Z,98060.38
2022-08-22T22:26:28.781Z,98058.25
2022-08-22T22:28:59.080Z,98067.31
2022-08-22T22:31:28.060Z,98063.69
2022-08-22T22:33:56.466Z,98065.19
2022-08-22T22:36:27.672Z,98061.44
2022-08-22T22:38:56.664Z,98064.22
2022-08-22T22:41:25.769Z,98070.00
2022-08-22T22:43:56.463Z,98067.19
2022-08-22T22:46:26.744Z,98080.88
2022-08-22T22:48:55.411Z,98079.25
2022-08-22T22:51:24.689Z,98089.44
2022-08-22T22:53:53.123Z,98086.31
2022-08-22T22:56:23.958Z,98090.75
2022-08-22T22:59:01.124Z,98091.72
2022-08-22T23:02:02.344Z,98086.44
2022-08-22T23:04:32.715Z,98089.72
2022-08-22T23:07:01.630Z,98090.38
2022-08-22T23:09:38.640Z,98085.75
2022-08-22T23:12:14.144Z,98091.31
2022-08-22T23:14:43.342Z,98085.72
2022-08-22T23:17:13.556Z,98094.59
2022-08-22T23:19:42.324Z,98096.88
2022-08-22T23:22:15.196Z,98102.44
2022-08-22T23:24:43.709Z,98106.38
2022-08-22T23:27:13.527Z,98103.41
2022-08-22T23:29:42.604Z,98112.09
2022-08-22T23:32:14.082Z,98099.41
2022-08-22T23:34:45.972Z,98104.16
2022-08-22T23:37:17.683Z,98110.88
2022-08-22T23:39:46.546Z,98104.59
2022-08-22T23:42:17.978Z,98118.19
2022-08-22T23:44:47.076Z,98111.28
2022-08-22T23:47:17.729Z,98104.69
2022-08-22T23:49:46.123Z,98106.84
2022-08-22T23:52:15.321Z,98112.44
2022-08-22T23:54:43.764Z,98111.06
2022-08-22T23:57:12.761Z,98105.34
2022-08-22T23:59:47.976Z,98106.75
